Terminal Aerodrome Forecast
Issued by NWS Jackson, KY

Home | Current Version | Previous Version | Text Only | Print | Product List | Glossary On
Versions: 1 2 3 4 5 6 7 8 9 10 11 12 13 14 15 16 17 18 19 20
000
FTUS43 KJKL 221700
TAFLOZ
TAF
KLOZ 221739Z 2218/2318 VRB06KT P6SM SCT050
     FM230600 25005KT 4SM BR FEW200
     FM230900 VRB02KT 2SM BR FEW200
     FM231300 25006KT P6SM VCSH BKN050=

USA.gov is the U.S. government's official web portal to all federal, state and local government web resources and services.